sensor_id;sensor_type;location;lat;lon;timestamp;temperature;humidity
68439;SHT31;55421;51.600;5.718;2024-01-30T00:00:42;8.57;84.47
68439;SHT31;55421;51.600;5.718;2024-01-30T00:03:28;8.55;84.48
68439;SHT31;55421;51.600;5.718;2024-01-30T00:05:57;8.54;84.47
68439;SHT31;55421;51.600;5.718;2024-01-30T00:08:24;8.53;84.50
68439;SHT31;55421;51.600;5.718;2024-01-30T00:10:50;8.52;84.51
68439;SHT31;55421;51.600;5.718;2024-01-30T00:13:17;8.51;84.52
68439;SHT31;55421;51.600;5.718;2024-01-30T00:15:46;8.49;84.41
68439;SHT31;55421;51.600;5.718;2024-01-30T00:18:12;8.47;84.38
68439;SHT31;55421;51.600;5.718;2024-01-30T00:20:39;8.45;84.40
68439;SHT31;55421;51.600;5.718;2024-01-30T00:23:05;8.43;84.40
68439;SHT31;55421;51.600;5.718;2024-01-30T00:25:32;8.40;84.40
68439;SHT31;55421;51.600;5.718;2024-01-30T00:27:59;8.38;84.33
68439;SHT31;55421;51.600;5.718;2024-01-30T00:30:26;8.36;84.39
68439;SHT31;55421;51.600;5.718;2024-01-30T00:32:53;8.34;84.33
68439;SHT31;55421;51.600;5.718;2024-01-30T00:35:20;8.32;84.34
68439;SHT31;55421;51.600;5.718;2024-01-30T00:37:48;8.29;84.40
68439;SHT31;55421;51.600;5.718;2024-01-30T00:40:14;8.26;84.39
68439;SHT31;55421;51.600;5.718;2024-01-30T00:42:42;8.21;84.36
68439;SHT31;55421;51.600;5.718;2024-01-30T00:45:13;8.15;84.44
68439;SHT31;55421;51.600;5.718;2024-01-30T00:47:42;8.12;84.47
68439;SHT31;55421;51.600;5.718;2024-01-30T00:50:09;8.08;84.51
68439;SHT31;55421;51.600;5.718;2024-01-30T00:52:36;8.07;84.60
68439;SHT31;55421;51.600;5.718;2024-01-30T00:55:02;8.05;84.57
68439;SHT31;55421;51.600;5.718;2024-01-30T00:57:29;8.01;84.50
68439;SHT31;55421;51.600;5.718;2024-01-30T00:59:56;7.99;84.60
68439;SHT31;55421;51.600;5.718;2024-01-30T01:02:23;8.00;84.75
68439;SHT31;55421;51.600;5.718;2024-01-30T01:04:51;8.00;84.74
68439;SHT31;55421;51.600;5.718;2024-01-30T01:07:19;8.00;84.70
68439;SHT31;55421;51.600;5.718;2024-01-30T01:09:46;8.00;84.70
68439;SHT31;55421;51.600;5.718;2024-01-30T01:12:12;7.99;84.70
68439;SHT31;55421;51.600;5.718;2024-01-30T01:14:39;8.00;84.70
68439;SHT31;55421;51.600;5.718;2024-01-30T01:17:05;7.98;84.61
68439;SHT31;55421;51.600;5.718;2024-01-30T01:19:32;7.96;84.60
68439;SHT31;55421;51.600;5.718;2024-01-30T01:21:59;7.96;84.62
68439;SHT31;55421;51.600;5.718;2024-01-30T01:24:25;7.97;84.68
68439;SHT31;55421;51.600;5.718;2024-01-30T01:26:52;7.98;84.68
68439;SHT31;55421;51.600;5.718;2024-01-30T01:29:18;7.99;84.66
68439;SHT31;55421;51.600;5.718;2024-01-30T01:31:47;7.99;84.60
68439;SHT31;55421;51.600;5.718;2024-01-30T01:34:13;7.99;84.55
68439;SHT31;55421;51.600;5.718;2024-01-30T01:36:39;8.00;84.60
68439;SHT31;55421;51.600;5.718;2024-01-30T01:39:06;8.00;84.63
68439;SHT31;55421;51.600;5.718;2024-01-30T01:41:32;8.03;84.64
68439;SHT31;55421;51.600;5.718;2024-01-30T01:44:00;8.05;84.56
68439;SHT31;55421;51.600;5.718;2024-01-30T01:46:27;8.06;84.54
68439;SHT31;55421;51.600;5.718;2024-01-30T01:48:58;8.08;84.50
68439;SHT31;55421;51.600;5.718;2024-01-30T01:51:33;8.09;84.55
68439;SHT31;55421;51.600;5.718;2024-01-30T01:54:03;8.10;84.50
68439;SHT31;55421;51.600;5.718;2024-01-30T01:56:32;8.09;84.40
68439;SHT31;55421;51.600;5.718;2024-01-30T01:59:00;8.08;84.40
68439;SHT31;55421;51.600;5.718;2024-01-30T02:01:34;8.07;84.38
68439;SHT31;55421;51.600;5.718;2024-01-30T02:04:03;8.08;84.40
68439;SHT31;55421;51.600;5.718;2024-01-30T02:06:32;8.10;84.49
68439;SHT31;55421;51.600;5.718;2024-01-30T02:09:00;8.11;84.47
68439;SHT31;55421;51.600;5.718;2024-01-30T02:11:27;8.12;84.48
68439;SHT31;55421;51.600;5.718;2024-01-30T02:13:55;8.13;84.41
68439;SHT31;55421;51.600;5.718;2024-01-30T02:16:21;8.15;84.44
68439;SHT31;55421;51.600;5.718;2024-01-30T02:18:48;8.15;84.40
68439;SHT31;55421;51.600;5.718;2024-01-30T02:21:15;8.16;84.41
68439;SHT31;55421;51.600;5.718;2024-01-30T02:23:43;8.17;84.42
68439;SHT31;55421;51.600;5.718;2024-01-30T02:26:13;8.19;84.40
68439;SHT31;55421;51.600;5.718;2024-01-30T02:28:39;8.21;84.40
68439;SHT31;55421;51.600;5.718;2024-01-30T02:31:06;8.23;84.40
68439;SHT31;55421;51.600;5.718;2024-01-30T02:33:32;8.23;84.39
68439;SHT31;55421;51.600;5.718;2024-01-30T02:35:59;8.24;84.36
68439;SHT31;55421;51.600;5.718;2024-01-30T02:38:26;8.25;84.34
68439;SHT31;55421;51.600;5.718;2024-01-30T02:40:53;8.26;84.36
68439;SHT31;55421;51.600;5.718;2024-01-30T02:43:19;8.25;84.30
68439;SHT31;55421;51.600;5.718;2024-01-30T02:45:46;8.23;84.24
68439;SHT31;55421;51.600;5.718;2024-01-30T02:48:12;8.23;84.26
68439;SHT31;55421;51.600;5.718;2024-01-30T02:50:38;8.24;84.30
68439;SHT31;55421;51.600;5.718;2024-01-30T02:53:05;8.23;84.30
68439;SHT31;55421;51.600;5.718;2024-01-30T02:55:32;8.24;84.30
68439;SHT31;55421;51.600;5.718;2024-01-30T02:57:59;8.26;84.27
68439;SHT31;55421;51.600;5.718;2024-01-30T03:00:26;8.25;84.20
68439;SHT31;55421;51.600;5.718;2024-01-30T03:02:52;8.24;84.17
68439;SHT31;55421;51.600;5.718;2024-01-30T03:05:19;8.25;84.20
68439;SHT31;55421;51.600;5.718;2024-01-30T03:07:45;8.25;84.19
68439;SHT31;55421;51.600;5.718;2024-01-30T03:10:12;8.25;84.20
68439;SHT31;55421;51.600;5.718;2024-01-30T03:12:38;8.28;84.20
68439;SHT31;55421;51.600;5.718;2024-01-30T03:15:05;8.29;84.20
68439;SHT31;55421;51.600;5.718;2024-01-30T03:17:32;8.31;84.20
68439;SHT31;55421;51.600;5.718;2024-01-30T03:19:58;8.31;84.17
68439;SHT31;55421;51.600;5.718;2024-01-30T03:22:25;8.29;84.20
68439;SHT31;55421;51.600;5.718;2024-01-30T03:24:51;8.27;84.20
68439;SHT31;55421;51.600;5.718;2024-01-30T03:27:18;8.26;84.17
68439;SHT31;55421;51.600;5.718;2024-01-30T03:29:44;8.23;84.13
68439;SHT31;55421;51.600;5.718;2024-01-30T03:32:11;8.22;84.16
68439;SHT31;55421;51.600;5.718;2024-01-30T03:34:37;8.20;84.19
68439;SHT31;55421;51.600;5.718;2024-01-30T03:37:04;8.18;84.15
68439;SHT31;55421;51.600;5.718;2024-01-30T03:39:30;8.19;84.19
68439;SHT31;55421;51.600;5.718;2024-01-30T03:41:57;8.18;84.19
68439;SHT31;55421;51.600;5.718;2024-01-30T03:44:23;8.17;84.17
68439;SHT31;55421;51.600;5.718;2024-01-30T03:46:50;8.16;84.18
68439;SHT31;55421;51.600;5.718;2024-01-30T03:49:17;8.17;84.13
68439;SHT31;55421;51.600;5.718;2024-01-30T03:51:43;8.17;84.20
68439;SHT31;55421;51.600;5.718;2024-01-30T03:54:10;8.17;84.20
68439;SHT31;55421;51.600;5.718;2024-01-30T03:56:37;8.16;84.20
68439;SHT31;55421;51.600;5.718;2024-01-30T03:59:03;8.17;84.20
68439;SHT31;55421;51.600;5.718;2024-01-30T04:01:30;8.17;84.20
68439;SHT31;55421;51.600;5.718;2024-01-30T04:03:56;8.16;84.20
68439;SHT31;55421;51.600;5.718;2024-01-30T04:06:23;8.16;84.22
68439;SHT31;55421;51.600;5.718;2024-01-30T04:08:50;8.17;84.28
68439;SHT31;55421;51.600;5.718;2024-01-30T04:11:18;8.18;84.30
68439;SHT31;55421;51.600;5.718;2024-01-30T04:13:46;8.19;84.31
68439;SHT31;55421;51.600;5.718;2024-01-30T04:16:20;8.21;84.30
68439;SHT31;55421;51.600;5.718;2024-01-30T04:18:48;8.22;84.31
68439;SHT31;55421;51.600;5.718;2024-01-30T04:21:16;8.24;84.30
68439;SHT31;55421;51.600;5.718;2024-01-30T04:23:42;8.25;84.31
68439;SHT31;55421;51.600;5.718;2024-01-30T04:26:09;8.26;84.30
68439;SHT31;55421;51.600;5.718;2024-01-30T04:28:35;8.26;84.30
68439;SHT31;55421;51.600;5.718;2024-01-30T04:31:02;8.28;84.37
68439;SHT31;55421;51.600;5.718;2024-01-30T04:33:28;8.29;84.34
68439;SHT31;55421;51.600;5.718;2024-01-30T04:35:55;8.31;84.35
68439;SHT31;55421;51.600;5.718;2024-01-30T04:38:21;8.33;84.38
68439;SHT31;55421;51.600;5.718;2024-01-30T04:40:48;8.33;84.36
68439;SHT31;55421;51.600;5.718;2024-01-30T04:43:14;8.35;84.40
68439;SHT31;55421;51.600;5.718;2024-01-30T04:45:42;8.38;84.41
68439;SHT31;55421;51.600;5.718;2024-01-30T04:48:08;8.38;84.30
68439;SHT31;55421;51.600;5.718;2024-01-30T04:50:34;8.37;84.30
68439;SHT31;55421;51.600;5.718;2024-01-30T04:53:01;8.38;84.37
68439;SHT31;55421;51.600;5.718;2024-01-30T04:55:28;8.40;84.41
68439;SHT31;55421;51.600;5.718;2024-01-30T04:57:54;8.41;84.40
68439;SHT31;55421;51.600;5.718;2024-01-30T05:00:21;8.43;84.40
68439;SHT31;55421;51.600;5.718;2024-01-30T05:02:47;8.43;84.40
68439;SHT31;55421;51.600;5.718;2024-01-30T05:05:14;8.45;84.40
68439;SHT31;55421;51.600;5.718;2024-01-30T05:07:41;8.48;84.40
68439;SHT31;55421;51.600;5.718;2024-01-30T05:10:07;8.47;84.39
68439;SHT31;55421;51.600;5.718;2024-01-30T05:12:35;8.48;84.40
68439;SHT31;55421;51.600;5.718;2024-01-30T05:15:01;8.48;84.40
68439;SHT31;55421;51.600;5.718;2024-01-30T05:17:28;8.49;84.40
68439;SHT31;55421;51.600;5.718;2024-01-30T05:19:54;8.50;84.47
68439;SHT31;55421;51.600;5.718;2024-01-30T05:22:21;8.51;84.50
68439;SHT31;55421;51.600;5.718;2024-01-30T05:24:47;8.54;84.52
68439;SHT31;55421;51.600;5.718;2024-01-30T05:27:14;8.55;84.57
68439;SHT31;55421;51.600;5.718;2024-01-30T05:29:40;8.58;84.58
68439;SHT31;55421;51.600;5.718;2024-01-30T05:32:07;8.60;84.58
68439;SHT31;55421;51.600;5.718;2024-01-30T05:34:37;8.62;84.60
68439;SHT31;55421;51.600;5.718;2024-01-30T05:37:03;8.65;84.60
68439;SHT31;55421;51.600;5.718;2024-01-30T05:39:30;8.66;84.59
68439;SHT31;55421;51.600;5.718;2024-01-30T05:41:59;8.67;84.55
68439;SHT31;55421;51.600;5.718;2024-01-30T05:44:26;8.68;84.58
68439;SHT31;55421;51.600;5.718;2024-01-30T05:46:53;8.69;84.59
68439;SHT31;55421;51.600;5.718;2024-01-30T05:49:19;8.73;84.58
68439;SHT31;55421;51.600;5.718;2024-01-30T05:51:46;8.75;84.50
68439;SHT31;55421;51.600;5.718;2024-01-30T05:54:12;8.77;84.50
68439;SHT31;55421;51.600;5.718;2024-01-30T05:56:39;8.80;84.50
68439;SHT31;55421;51.600;5.718;2024-01-30T05:59:05;8.84;84.50
68439;SHT31;55421;51.600;5.718;2024-01-30T06:01:32;8.87;84.43
68439;SHT31;55421;51.600;5.718;2024-01-30T06:04:00;8.90;84.40
68439;SHT31;55421;51.600;5.718;2024-01-30T06:06:27;8.91;84.31
68439;SHT31;55421;51.600;5.718;2024-01-30T06:08:54;8.91;84.31
68439;SHT31;55421;51.600;5.718;2024-01-30T06:11:22;8.91;84.36
68439;SHT31;55421;51.600;5.718;2024-01-30T06:13:48;8.92;84.40
68439;SHT31;55421;51.600;5.718;2024-01-30T06:16:15;8.92;84.40
68439;SHT31;55421;51.600;5.718;2024-01-30T06:18:41;8.95;84.43
68439;SHT31;55421;51.600;5.718;2024-01-30T06:21:08;8.93;84.39
68439;SHT31;55421;51.600;5.718;2024-01-30T06:23:34;8.92;84.41
68439;SHT31;55421;51.600;5.718;2024-01-30T06:26:01;8.92;84.43
68439;SHT31;55421;51.600;5.718;2024-01-30T06:28:27;8.92;84.47
68439;SHT31;55421;51.600;5.718;2024-01-30T06:30:53;8.92;84.50
68439;SHT31;55421;51.600;5.718;2024-01-30T06:33:20;8.91;84.49
68439;SHT31;55421;51.600;5.718;2024-01-30T06:35:46;8.91;84.50
68439;SHT31;55421;51.600;5.718;2024-01-30T06:38:13;8.91;84.54
68439;SHT31;55421;51.600;5.718;2024-01-30T06:40:41;8.91;84.60
68439;SHT31;55421;51.600;5.718;2024-01-30T06:43:08;8.94;84.60
68439;SHT31;55421;51.600;5.718;2024-01-30T06:45:35;8.95;84.60
68439;SHT31;55421;51.600;5.718;2024-01-30T06:48:02;8.96;84.61
68439;SHT31;55421;51.600;5.718;2024-01-30T06:50:28;8.97;84.60
68439;SHT31;55421;51.600;5.718;2024-01-30T06:52:55;8.97;84.60
68439;SHT31;55421;51.600;5.718;2024-01-30T06:55:21;8.98;84.60
68439;SHT31;55421;51.600;5.718;2024-01-30T06:57:48;8.97;84.59
68439;SHT31;55421;51.600;5.718;2024-01-30T07:00:15;8.97;84.61
68439;SHT31;55421;51.600;5.718;2024-01-30T07:02:42;8.97;84.63
68439;SHT31;55421;51.600;5.718;2024-01-30T07:05:09;8.99;84.64
68439;SHT31;55421;51.600;5.718;2024-01-30T07:07:35;9.00;84.60
68439;SHT31;55421;51.600;5.718;2024-01-30T07:10:02;9.00;84.61
68439;SHT31;55421;51.600;5.718;2024-01-30T07:12:30;8.99;84.60
68439;SHT31;55421;51.600;5.718;2024-01-30T07:14:57;8.98;84.60
68439;SHT31;55421;51.600;5.718;2024-01-30T07:17:25;9.00;84.69
68439;SHT31;55421;51.600;5.718;2024-01-30T07:19:52;8.99;84.67
68439;SHT31;55421;51.600;5.718;2024-01-30T07:22:18;9.00;84.68
68439;SHT31;55421;51.600;5.718;2024-01-30T07:24:45;9.00;84.71
68439;SHT31;55421;51.600;5.718;2024-01-30T07:27:13;9.02;84.74
68439;SHT31;55421;51.600;5.718;2024-01-30T07:29:40;9.03;84.74
68439;SHT31;55421;51.600;5.718;2024-01-30T07:32:09;9.04;84.79
68439;SHT31;55421;51.600;5.718;2024-01-30T07:34:35;9.02;84.77
68439;SHT31;55421;51.600;5.718;2024-01-30T07:37:02;9.01;84.78
68439;SHT31;55421;51.600;5.718;2024-01-30T07:39:29;8.97;84.79
68439;SHT31;55421;51.600;5.718;2024-01-30T07:41:55;8.97;84.83
68439;SHT31;55421;51.600;5.718;2024-01-30T07:44:22;8.95;84.96
68439;SHT31;55421;51.600;5.718;2024-01-30T07:46:49;8.97;85.08
68439;SHT31;55421;51.600;5.718;2024-01-30T07:49:16;8.99;85.10
68439;SHT31;55421;51.600;5.718;2024-01-30T07:51:43;9.02;85.12
68439;SHT31;55421;51.600;5.718;2024-01-30T07:54:14;9.03;85.13
68439;SHT31;55421;51.600;5.718;2024-01-30T07:56:41;9.07;85.19
68439;SHT31;55421;51.600;5.718;2024-01-30T07:59:11;9.11;85.20
68439;SHT31;55421;51.600;5.718;2024-01-30T08:01:38;9.14;85.22
68439;SHT31;55421;51.600;5.718;2024-01-30T08:04:04;9.18;85.21
68439;SHT31;55421;51.600;5.718;2024-01-30T08:06:31;9.23;85.24
68439;SHT31;55421;51.600;5.718;2024-01-30T08:08:57;9.24;85.17
68439;SHT31;55421;51.600;5.718;2024-01-30T08:11:25;9.27;85.17
68439;SHT31;55421;51.600;5.718;2024-01-30T08:13:53;9.32;85.20
68439;SHT31;55421;51.600;5.718;2024-01-30T08:16:19;9.39;85.28
68439;SHT31;55421;51.600;5.718;2024-01-30T08:18:46;9.45;85.27
68439;SHT31;55421;51.600;5.718;2024-01-30T08:21:13;9.50;85.20
68439;SHT31;55421;51.600;5.718;2024-01-30T08:23:40;9.55;85.11
68439;SHT31;55421;51.600;5.718;2024-01-30T08:26:06;9.58;85.05
68439;SHT31;55421;51.600;5.718;2024-01-30T08:28:33;9.62;85.01
68439;SHT31;55421;51.600;5.718;2024-01-30T08:30:59;9.65;84.99
68439;SHT31;55421;51.600;5.718;2024-01-30T08:33:29;9.68;84.89
68439;SHT31;55421;51.600;5.718;2024-01-30T08:35:55;9.70;84.90
68439;SHT31;55421;51.600;5.718;2024-01-30T08:38:22;9.73;84.85
68439;SHT31;55421;51.600;5.718;2024-01-30T08:40:48;9.75;84.78
68439;SHT31;55421;51.600;5.718;2024-01-30T08:43:15;9.77;84.80
68439;SHT31;55421;51.600;5.718;2024-01-30T08:45:42;9.81;84.74
68439;SHT31;55421;51.600;5.718;2024-01-30T08:48:09;9.84;84.65
68439;SHT31;55421;51.600;5.718;2024-01-30T08:50:35;9.86;84.62
68439;SHT31;55421;51.600;5.718;2024-01-30T08:53:02;9.87;84.60
68439;SHT31;55421;51.600;5.718;2024-01-30T08:55:28;9.90;84.60
68439;SHT31;55421;51.600;5.718;2024-01-30T08:57:56;9.92;84.59
68439;SHT31;55421;51.600;5.718;2024-01-30T09:00:23;9.95;84.58
68439;SHT31;55421;51.600;5.718;2024-01-30T09:02:49;9.98;84.54
68439;SHT31;55421;51.600;5.718;2024-01-30T09:05:16;10.02;84.55
68439;SHT31;55421;51.600;5.718;2024-01-30T09:07:42;10.06;84.50
68439;SHT31;55421;51.600;5.718;2024-01-30T09:10:09;10.11;84.50
68439;SHT31;55421;51.600;5.718;2024-01-30T09:12:35;10.14;84.44
68439;SHT31;55421;51.600;5.718;2024-01-30T09:15:02;10.17;84.38
68439;SHT31;55421;51.600;5.718;2024-01-30T09:17:29;10.19;84.34
68439;SHT31;55421;51.600;5.718;2024-01-30T09:19:56;10.19;84.37
68439;SHT31;55421;51.600;5.718;2024-01-30T09:22:22;10.20;84.34
68439;SHT31;55421;51.600;5.718;2024-01-30T09:24:49;10.19;84.32
68439;SHT31;55421;51.600;5.718;2024-01-30T09:27:15;10.20;84.30
68439;SHT31;55421;51.600;5.718;2024-01-30T09:29:42;10.21;84.30
68439;SHT31;55421;51.600;5.718;2024-01-30T09:32:08;10.22;84.32
68439;SHT31;55421;51.600;5.718;2024-01-30T09:34:35;10.24;84.30
68439;SHT31;55421;51.600;5.718;2024-01-30T09:37:01;10.26;84.30
68439;SHT31;55421;51.600;5.718;2024-01-30T09:39:28;10.28;84.32
68439;SHT31;55421;51.600;5.718;2024-01-30T09:42:00;10.30;84.33
68439;SHT31;55421;51.600;5.718;2024-01-30T09:44:47;10.33;84.34
68439;SHT31;55421;51.600;5.718;2024-01-30T09:47:18;10.37;84.32
68439;SHT31;55421;51.600;5.718;2024-01-30T09:49:45;10.39;84.35
68439;SHT31;55421;51.600;5.718;2024-01-30T09:52:12;10.42;84.32
68439;SHT31;55421;51.600;5.718;2024-01-30T09:54:38;10.45;84.31
68439;SHT31;55421;51.600;5.718;2024-01-30T09:57:08;10.48;84.36
68439;SHT31;55421;51.600;5.718;2024-01-30T09:59:35;10.50;84.30
68439;SHT31;55421;51.600;5.718;2024-01-30T10:02:02;10.54;84.30
68439;SHT31;55421;51.600;5.718;2024-01-30T10:04:30;10.57;84.23
68439;SHT31;55421;51.600;5.718;2024-01-30T10:06:56;10.62;84.27
68439;SHT31;55421;51.600;5.718;2024-01-30T10:09:25;10.65;84.21
68439;SHT31;55421;51.600;5.718;2024-01-30T10:11:51;10.71;84.20
68439;SHT31;55421;51.600;5.718;2024-01-30T10:14:18;10.78;84.20
68439;SHT31;55421;51.600;5.718;2024-01-30T10:16:45;10.83;84.17
68439;SHT31;55421;51.600;5.718;2024-01-30T10:19:13;10.88;84.11
68439;SHT31;55421;51.600;5.718;2024-01-30T10:21:39;10.91;84.07
68439;SHT31;55421;51.600;5.718;2024-01-30T10:24:06;10.95;84.01
68439;SHT31;55421;51.600;5.718;2024-01-30T10:26:33;10.98;84.00
68439;SHT31;55421;51.600;5.718;2024-01-30T10:29:00;11.02;84.00
68439;SHT31;55421;51.600;5.718;2024-01-30T10:31:27;11.04;83.99
68439;SHT31;55421;51.600;5.718;2024-01-30T10:33:53;11.05;84.00
68439;SHT31;55421;51.600;5.718;2024-01-30T10:36:20;11.08;84.00
68439;SHT31;55421;51.600;5.718;2024-01-30T10:38:55;11.09;84.00
68439;SHT31;55421;51.600;5.718;2024-01-30T10:41:26;11.10;84.00
68439;SHT31;55421;51.600;5.718;2024-01-30T10:44:03;11.13;84.00
68439;SHT31;55421;51.600;5.718;2024-01-30T10:46:39;11.15;84.00
68439;SHT31;55421;51.600;5.718;2024-01-30T10:49:11;11.16;83.98
68439;SHT31;55421;51.600;5.718;2024-01-30T10:51:40;11.19;83.97
68439;SHT31;55421;51.600;5.718;2024-01-30T10:54:09;11.24;84.00
68439;SHT31;55421;51.600;5.718;2024-01-30T10:56:36;11.30;83.99
68439;SHT31;55421;51.600;5.718;2024-01-30T10:59:04;11.36;83.94
68439;SHT31;55421;51.600;5.718;2024-01-30T11:01:30;11.40;83.89
68439;SHT31;55421;51.600;5.718;2024-01-30T11:03:57;11.42;83.79
68439;SHT31;55421;51.600;5.718;2024-01-30T11:06:24;11.44;83.72
68439;SHT31;55421;51.600;5.718;2024-01-30T11:09:02;11.47;83.63
68439;SHT31;55421;51.600;5.718;2024-01-30T11:11:30;11.47;83.52
68439;SHT31;55421;51.600;5.718;2024-01-30T11:14:00;11.50;83.50
68439;SHT31;55421;51.600;5.718;2024-01-30T11:16:30;11.55;83.50
68439;SHT31;55421;51.600;5.718;2024-01-30T11:19:00;11.61;83.43
68439;SHT31;55421;51.600;5.718;2024-01-30T11:21:28;11.67;83.44
68439;SHT31;55421;51.600;5.718;2024-01-30T11:23:55;11.74;83.36
68439;SHT31;55421;51.600;5.718;2024-01-30T11:26:30;11.78;83.25
68439;SHT31;55421;51.600;5.718;2024-01-30T11:28:57;11.84;83.10
68439;SHT31;55421;51.600;5.718;2024-01-30T11:31:23;11.84;83.01
68439;SHT31;55421;51.600;5.718;2024-01-30T11:33:52;11.81;82.99
68439;SHT31;55421;51.600;5.718;2024-01-30T11:36:20;11.80;82.86
68439;SHT31;55421;51.600;5.718;2024-01-30T11:38:53;11.77;82.77
68439;SHT31;55421;51.600;5.718;2024-01-30T11:41:20;11.75;82.80
68439;SHT31;55421;51.600;5.718;2024-01-30T11:43:54;11.74;82.80
68439;SHT31;55421;51.600;5.718;2024-01-30T11:46:22;11.77;82.77
68439;SHT31;55421;51.600;5.718;2024-01-30T11:48:51;11.83;82.74
68439;SHT31;55421;51.600;5.718;2024-01-30T11:51:18;11.90;82.62
68439;SHT31;55421;51.600;5.718;2024-01-30T11:53:49;11.97;82.39
68439;SHT31;55421;51.600;5.718;2024-01-30T11:56:16;12.03;82.00
68439;SHT31;55421;51.600;5.718;2024-01-30T11:58:43;12.07;81.63
68439;SHT31;55421;51.600;5.718;2024-01-30T12:01:10;12.11;81.54
68439;SHT31;55421;51.600;5.718;2024-01-30T12:03:37;12.13;81.30
68439;SHT31;55421;51.600;5.718;2024-01-30T12:06:04;12.13;81.00
68439;SHT31;55421;51.600;5.718;2024-01-30T12:08:31;12.11;81.14
68439;SHT31;55421;51.600;5.718;2024-01-30T12:10:57;12.11;81.12
68439;SHT31;55421;51.600;5.718;2024-01-30T12:13:25;12.10;81.04
68439;SHT31;55421;51.600;5.718;2024-01-30T12:15:53;12.09;80.95
68439;SHT31;55421;51.600;5.718;2024-01-30T12:18:19;12.09;80.68
68439;SHT31;55421;51.600;5.718;2024-01-30T12:20:56;12.10;80.79
68439;SHT31;55421;51.600;5.718;2024-01-30T12:23:25;12.10;80.81
68439;SHT31;55421;51.600;5.718;2024-01-30T12:25:53;12.10;80.67
68439;SHT31;55421;51.600;5.718;2024-01-30T12:28:20;12.11;80.11
68439;SHT31;55421;51.600;5.718;2024-01-30T12:30:47;12.09;79.73
68439;SHT31;55421;51.600;5.718;2024-01-30T12:33:17;12.06;79.47
68439;SHT31;55421;51.600;5.718;2024-01-30T12:35:47;12.03;78.70
68439;SHT31;55421;51.600;5.718;2024-01-30T12:38:14;12.02;78.70
68439;SHT31;55421;51.600;5.718;2024-01-30T12:40:41;11.99;78.74
68439;SHT31;55421;51.600;5.718;2024-01-30T12:43:07;11.95;78.36
68439;SHT31;55421;51.600;5.718;2024-01-30T12:45:35;11.90;77.94
68439;SHT31;55421;51.600;5.718;2024-01-30T12:48:02;11.84;78.12
68439;SHT31;55421;51.600;5.718;2024-01-30T12:50:29;11.81;77.87
68439;SHT31;55421;51.600;5.718;2024-01-30T12:52:56;11.80;77.38
68439;SHT31;55421;51.600;5.718;2024-01-30T12:55:23;11.76;76.82
68439;SHT31;55421;51.600;5.718;2024-01-30T12:57:51;11.74;76.66
68439;SHT31;55421;51.600;5.718;2024-01-30T13:00:17;11.71;76.44
68439;SHT31;55421;51.600;5.718;2024-01-30T13:02:44;11.66;75.58
68439;SHT31;55421;51.600;5.718;2024-01-30T13:05:11;11.65;75.26
68439;SHT31;55421;51.600;5.718;2024-01-30T13:07:38;11.73;75.41
68439;SHT31;55421;51.600;5.718;2024-01-30T13:10:05;11.82;75.22
68439;SHT31;55421;51.600;5.718;2024-01-30T13:12:32;11.94;74.83
68439;SHT31;55421;51.600;5.718;2024-01-30T13:15:00;12.03;74.84
68439;SHT31;55421;51.600;5.718;2024-01-30T13:17:27;12.15;74.56
68439;SHT31;55421;51.600;5.718;2024-01-30T13:19:54;12.19;72.95
68439;SHT31;55421;51.600;5.718;2024-01-30T13:22:21;12.13;72.54
68439;SHT31;55421;51.600;5.718;2024-01-30T13:24:47;12.07;72.55
68439;SHT31;55421;51.600;5.718;2024-01-30T13:27:14;12.01;72.56
68439;SHT31;55421;51.600;5.718;2024-01-30T13:29:40;11.95;72.70
68439;SHT31;55421;51.600;5.718;2024-01-30T13:32:07;11.89;72.12
68439;SHT31;55421;51.600;5.718;2024-01-30T13:34:33;11.83;71.09
68439;SHT31;55421;51.600;5.718;2024-01-30T13:37:00;11.76;71.24
68439;SHT31;55421;51.600;5.718;2024-01-30T13:39:26;11.69;70.62
68439;SHT31;55421;51.600;5.718;2024-01-30T13:41:54;11.63;70.94
68439;SHT31;55421;51.600;5.718;2024-01-30T13:44:20;11.59;71.43
68439;SHT31;55421;51.600;5.718;2024-01-30T13:46:47;11.57;71.76
68439;SHT31;55421;51.600;5.718;2024-01-30T13:49:15;11.56;72.06
68439;SHT31;55421;51.600;5.718;2024-01-30T13:51:41;11.54;72.07
68439;SHT31;55421;51.600;5.718;2024-01-30T13:54:08;11.53;71.87
68439;SHT31;55421;51.600;5.718;2024-01-30T13:56:35;11.51;72.09
68439;SHT31;55421;51.600;5.718;2024-01-30T13:59:02;11.48;72.20
68439;SHT31;55421;51.600;5.718;2024-01-30T14:01:31;11.43;72.63
68439;SHT31;55421;51.600;5.718;2024-01-30T14:03:58;11.40;72.65
68439;SHT31;55421;51.600;5.718;2024-01-30T14:06:24;11.36;72.02
68439;SHT31;55421;51.600;5.718;2024-01-30T14:08:51;11.32;71.52
68439;SHT31;55421;51.600;5.718;2024-01-30T14:11:19;11.28;71.75
68439;SHT31;55421;51.600;5.718;2024-01-30T14:13:46;11.25;71.59
68439;SHT31;55421;51.600;5.718;2024-01-30T14:16:12;11.20;72.07
68439;SHT31;55421;51.600;5.718;2024-01-30T14:18:39;11.16;72.06
68439;SHT31;55421;51.600;5.718;2024-01-30T14:21:07;11.11;72.04
68439;SHT31;55421;51.600;5.718;2024-01-30T14:23:34;11.08;72.27
68439;SHT31;55421;51.600;5.718;2024-01-30T14:26:00;11.04;72.89
68439;SHT31;55421;51.600;5.718;2024-01-30T14:28:28;11.03;73.14
68439;SHT31;55421;51.600;5.718;2024-01-30T14:30:54;10.99;73.38
68439;SHT31;55421;51.600;5.718;2024-01-30T14:33:21;10.98;73.83
68439;SHT31;55421;51.600;5.718;2024-01-30T14:35:47;10.95;74.06
68439;SHT31;55421;51.600;5.718;2024-01-30T14:38:14;10.93;74.26
68439;SHT31;55421;51.600;5.718;2024-01-30T14:40:41;10.90;74.52
68439;SHT31;55421;51.600;5.718;2024-01-30T14:43:07;10.86;74.86
68439;SHT31;55421;51.600;5.718;2024-01-30T14:45:34;10.82;74.98
68439;SHT31;55421;51.600;5.718;2024-01-30T14:48:00;10.77;75.16
68439;SHT31;55421;51.600;5.718;2024-01-30T14:50:28;10.74;75.39
68439;SHT31;55421;51.600;5.718;2024-01-30T14:52:54;10.71;75.68
68439;SHT31;55421;51.600;5.718;2024-01-30T14:55:21;10.68;75.88
68439;SHT31;55421;51.600;5.718;2024-01-30T14:57:48;10.66;76.17
68439;SHT31;55421;51.600;5.718;2024-01-30T15:00:15;10.65;76.40
68439;SHT31;55421;51.600;5.718;2024-01-30T15:02:42;10.62;76.84
68439;SHT31;55421;51.600;5.718;2024-01-30T15:05:09;10.56;77.49
68439;SHT31;55421;51.600;5.718;2024-01-30T15:07:37;10.49;77.93
68439;SHT31;55421;51.600;5.718;2024-01-30T15:10:04;10.42;78.33
68439;SHT31;55421;51.600;5.718;2024-01-30T15:12:31;10.34;78.74
68439;SHT31;55421;51.600;5.718;2024-01-30T15:14:57;10.27;79.27
68439;SHT31;55421;51.600;5.718;2024-01-30T15:17:24;10.18;79.61
68439;SHT31;55421;51.600;5.718;2024-01-30T15:19:50;10.09;79.92
68439;SHT31;55421;51.600;5.718;2024-01-30T15:22:17;10.01;80.38
68439;SHT31;55421;51.600;5.718;2024-01-30T15:24:45;9.93;80.63
68439;SHT31;55421;51.600;5.718;2024-01-30T15:27:11;9.89;80.99
68439;SHT31;55421;51.600;5.718;2024-01-30T15:29:38;9.83;81.10
68439;SHT31;55421;51.600;5.718;2024-01-30T15:32:04;9.79;81.20
68439;SHT31;55421;51.600;5.718;2024-01-30T15:34:31;9.73;81.21
68439;SHT31;55421;51.600;5.718;2024-01-30T15:36:58;9.70;81.37
68439;SHT31;55421;51.600;5.718;2024-01-30T15:39:25;9.67;81.50